sensor_id;sensor_type;location;lat;lon;timestamp;pressure;altitude;pressure_sealevel;temperature;humidity
41040;BME280;48586;50.122;18.972;2023-09-19T00:01:16;97915.84;;;17.62;48.20
41040;BME280;48586;50.122;18.972;2023-09-19T00:04:22;97911.69;;;17.60;48.15
41040;BME280;48586;50.122;18.972;2023-09-19T00:07:30;97909.00;;;17.60;48.36
41040;BME280;48586;50.122;18.972;2023-09-19T00:10:37;97911.06;;;17.64;48.30
41040;BME280;48586;50.122;18.972;2023-09-19T00:13:47;97916.91;;;17.61;48.37
41040;BME280;48586;50.122;18.972;2023-09-19T00:16:53;97908.78;;;17.61;48.85
41040;BME280;48586;50.122;18.972;2023-09-19T00:19:58;97919.41;;;17.63;48.23
41040;BME280;48586;50.122;18.972;2023-09-19T00:23:09;97907.53;;;17.64;48.63
41040;BME280;48586;50.122;18.972;2023-09-19T00:26:14;97907.94;;;17.61;48.69
41040;BME280;48586;50.122;18.972;2023-09-19T00:29:26;97906.94;;;17.55;49.05
41040;BME280;48586;50.122;18.972;2023-09-19T00:32:34;97894.00;;;17.57;48.77
41040;BME280;48586;50.122;18.972;2023-09-19T00:35:47;97900.69;;;17.55;49.02
41040;BME280;48586;50.122;18.972;2023-09-19T00:38:52;97894.84;;;17.51;49.30
41040;BME280;48586;50.122;18.972;2023-09-19T00:41:57;97894.00;;;17.50;48.91
41040;BME280;48586;50.122;18.972;2023-09-19T00:45:11;97891.09;;;17.52;49.17
41040;BME280;48586;50.122;18.972;2023-09-19T00:48:19;97893.59;;;17.60;49.48
41040;BME280;48586;50.122;18.972;2023-09-19T00:51:26;97887.56;;;17.58;49.35
41040;BME280;48586;50.122;18.972;2023-09-19T00:54:34;97883.16;;;17.64;49.44
41040;BME280;48586;50.122;18.972;2023-09-19T00:57:40;97884.22;;;17.63;49.33
41040;BME280;48586;50.122;18.972;2023-09-19T01:00:50;97874.22;;;17.63;49.39
41040;BME280;48586;50.122;18.972;2023-09-19T01:03:56;97872.97;;;17.66;49.18
41040;BME280;48586;50.122;18.972;2023-09-19T01:07:01;97867.56;;;17.66;49.50
41040;BME280;48586;50.122;18.972;2023-09-19T01:10:09;97870.06;;;17.67;49.26
41040;BME280;48586;50.122;18.972;2023-09-19T01:13:25;97864.22;;;17.64;49.46
41040;BME280;48586;50.122;18.972;2023-09-19T01:16:49;97869.84;;;17.62;49.30
41040;BME280;48586;50.122;18.972;2023-09-19T01:20:16;97858.22;;;17.55;49.42
41040;BME280;48586;50.122;18.972;2023-09-19T01:23:46;97848.81;;;17.51;49.64
41040;BME280;48586;50.122;18.972;2023-09-19T01:27:47;97846.13;;;17.51;49.83
41040;BME280;48586;50.122;18.972;2023-09-19T01:31:15;97845.50;;;17.49;49.85
41040;BME280;48586;50.122;18.972;2023-09-19T01:34:22;97840.31;;;17.47;50.24
41040;BME280;48586;50.122;18.972;2023-09-19T01:37:28;97842.19;;;17.47;50.02
41040;BME280;48586;50.122;18.972;2023-09-19T01:40:41;97835.50;;;17.43;50.02
41040;BME280;48586;50.122;18.972;2023-09-19T01:43:52;97836.53;;;17.42;50.26
41040;BME280;48586;50.122;18.972;2023-09-19T01:47:12;97834.47;;;17.44;50.77
41040;BME280;48586;50.122;18.972;2023-09-19T01:50:31;97828.03;;;17.45;50.41
41040;BME280;48586;50.122;18.972;2023-09-19T01:53:51;97835.31;;;17.44;50.55
41040;BME280;48586;50.122;18.972;2023-09-19T01:57:13;97834.28;;;17.45;50.61
41040;BME280;48586;50.122;18.972;2023-09-19T02:00:26;97833.63;;;17.50;50.41
41040;BME280;48586;50.122;18.972;2023-09-19T02:03:40;97838.22;;;17.49;50.64
41040;BME280;48586;50.122;18.972;2023-09-19T02:06:47;97839.44;;;17.53;50.62
41040;BME280;48586;50.122;18.972;2023-09-19T02:09:54;97841.13;;;17.55;50.53
41040;BME280;48586;50.122;18.972;2023-09-19T02:12:58;97840.50;;;17.59;50.62
41040;BME280;48586;50.122;18.972;2023-09-19T02:16:07;97840.28;;;17.61;50.67
41040;BME280;48586;50.122;18.972;2023-09-19T02:19:14;97846.13;;;17.58;50.68
41040;BME280;48586;50.122;18.972;2023-09-19T02:22:20;97840.28;;;17.61;50.91
41040;BME280;48586;50.122;18.972;2023-09-19T02:25:26;97837.97;;;17.64;50.85
41040;BME280;48586;50.122;18.972;2023-09-19T02:28:34;97828.84;;;17.59;50.76
41040;BME280;48586;50.122;18.972;2023-09-19T02:31:40;97831.53;;;17.59;50.90
41040;BME280;48586;50.122;18.972;2023-09-19T02:34:49;97829.66;;;17.59;50.71
41040;BME280;48586;50.122;18.972;2023-09-19T02:37:55;97841.72;;;17.63;50.74
41040;BME280;48586;50.122;18.972;2023-09-19T02:41:02;97837.13;;;17.70;50.63
41040;BME280;48586;50.122;18.972;2023-09-19T02:44:08;97838.41;;;17.68;51.87
41040;BME280;48586;50.122;18.972;2023-09-19T02:47:14;97836.75;;;17.67;51.99
41040;BME280;48586;50.122;18.972;2023-09-19T02:50:24;97829.66;;;17.59;51.42
41040;BME280;48586;50.122;18.972;2023-09-19T02:53:29;97830.91;;;17.63;51.38
41040;BME280;48586;50.122;18.972;2023-09-19T02:56:34;97832.59;;;17.58;52.60
41040;BME280;48586;50.122;18.972;2023-09-19T02:59:40;97836.75;;;17.47;53.70
41040;BME280;48586;50.122;18.972;2023-09-19T03:02:47;97834.06;;;17.40;54.68
41040;BME280;48586;50.122;18.972;2023-09-19T03:05:57;97839.06;;;17.37;55.59
41040;BME280;48586;50.122;18.972;2023-09-19T03:09:06;97834.91;;;17.34;56.25
41040;BME280;48586;50.122;18.972;2023-09-19T03:12:16;97826.34;;;17.31;56.80
41040;BME280;48586;50.122;18.972;2023-09-19T03:15:21;97821.78;;;17.31;57.17
41040;BME280;48586;50.122;18.972;2023-09-19T03:18:29;97814.91;;;17.29;57.77
41040;BME280;48586;50.122;18.972;2023-09-19T03:21:37;97813.25;;;17.21;58.72
41040;BME280;48586;50.122;18.972;2023-09-19T03:24:42;97810.13;;;17.17;58.88
41040;BME280;48586;50.122;18.972;2023-09-19T03:27:48;97806.81;;;17.15;59.17
41040;BME280;48586;50.122;18.972;2023-09-19T03:30:59;97811.75;;;17.05;59.77
41040;BME280;48586;50.122;18.972;2023-09-19T03:34:08;97819.44;;;16.95;60.42
41040;BME280;48586;50.122;18.972;2023-09-19T03:37:17;97817.16;;;16.92;60.71
41040;BME280;48586;50.122;18.972;2023-09-19T03:40:22;97822.38;;;16.93;60.63
41040;BME280;48586;50.122;18.972;2023-09-19T03:43:29;97813.63;;;16.91;60.59
41040;BME280;48586;50.122;18.972;2023-09-19T03:46:33;97829.00;;;16.84;61.09
41040;BME280;48586;50.122;18.972;2023-09-19T03:49:39;97828.16;;;16.77;61.25
41040;BME280;48586;50.122;18.972;2023-09-19T03:52:48;97813.16;;;16.68;61.27
41040;BME280;48586;50.122;18.972;2023-09-19T03:55:54;97825.00;;;16.67;61.62
41040;BME280;48586;50.122;18.972;2023-09-19T03:59:00;97821.69;;;16.65;61.76
41040;BME280;48586;50.122;18.972;2023-09-19T04:02:06;97826.06;;;16.59;61.25
41040;BME280;48586;50.122;18.972;2023-09-19T04:05:16;97815.88;;;16.61;61.22
41040;BME280;48586;50.122;18.972;2023-09-19T04:08:24;97820.22;;;16.69;61.26
41040;BME280;48586;50.122;18.972;2023-09-19T04:11:29;97812.97;;;16.76;61.28
41040;BME280;48586;50.122;18.972;2023-09-19T04:14:35;97830.25;;;16.82;61.36
41040;BME280;48586;50.122;18.972;2023-09-19T04:17:40;97820.66;;;16.79;61.40
41040;BME280;48586;50.122;18.972;2023-09-19T04:20:48;97813.00;;;16.83;61.48
41040;BME280;48586;50.122;18.972;2023-09-19T04:23:56;97814.44;;;16.79;61.73
41040;BME280;48586;50.122;18.972;2023-09-19T04:27:02;97822.13;;;16.75;61.91
41040;BME280;48586;50.122;18.972;2023-09-19T04:30:08;97814.00;;;16.69;62.63
41040;BME280;48586;50.122;18.972;2023-09-19T04:33:14;97821.69;;;16.65;62.66
41040;BME280;48586;50.122;18.972;2023-09-19T04:36:19;97819.56;;;16.47;63.12
41040;BME280;48586;50.122;18.972;2023-09-19T04:39:28;97819.31;;;16.29;64.10
41040;BME280;48586;50.122;18.972;2023-09-19T04:42:34;97827.31;;;16.16;64.71
41040;BME280;48586;50.122;18.972;2023-09-19T04:45:40;97826.88;;;16.05;65.35
41040;BME280;48586;50.122;18.972;2023-09-19T04:48:45;97825.38;;;15.96;65.87
41040;BME280;48586;50.122;18.972;2023-09-19T04:51:51;97826.59;;;15.94;66.06
41040;BME280;48586;50.122;18.972;2023-09-19T04:54:59;97829.13;;;15.95;66.35
41040;BME280;48586;50.122;18.972;2023-09-19T04:58:07;97838.63;;;15.91;67.29
41040;BME280;48586;50.122;18.972;2023-09-19T05:01:13;97842.78;;;15.59;69.79
41040;BME280;48586;50.122;18.972;2023-09-19T05:04:20;97837.97;;;15.27;71.23
41040;BME280;48586;50.122;18.972;2023-09-19T05:07:26;97838.19;;;15.04;71.64
41040;BME280;48586;50.122;18.972;2023-09-19T05:10:34;97832.28;;;14.93;72.30
41040;BME280;48586;50.122;18.972;2023-09-19T05:13:41;97830.81;;;14.91;72.13
41040;BME280;48586;50.122;18.972;2023-09-19T05:16:47;97838.31;;;14.96;72.58
41040;BME280;48586;50.122;18.972;2023-09-19T05:19:52;97837.69;;;14.93;72.03
41040;BME280;48586;50.122;18.972;2023-09-19T05:23:00;97844.66;;;14.88;72.48
41040;BME280;48586;50.122;18.972;2023-09-19T05:26:09;97843.06;;;14.93;72.28
41040;BME280;48586;50.122;18.972;2023-09-19T05:29:16;97839.97;;;14.97;72.32
41040;BME280;48586;50.122;18.972;2023-09-19T05:32:20;97842.47;;;14.98;71.74
41040;BME280;48586;50.122;18.972;2023-09-19T05:35:26;97848.25;;;14.95;71.96
41040;BME280;48586;50.122;18.972;2023-09-19T05:38:32;97855.31;;;14.96;71.89
41040;BME280;48586;50.122;18.972;2023-09-19T05:41:41;97855.50;;;14.94;71.85
41040;BME280;48586;50.122;18.972;2023-09-19T05:44:46;97855.31;;;14.96;71.49
41040;BME280;48586;50.122;18.972;2023-09-19T05:47:52;97856.16;;;14.97;71.38
41040;BME280;48586;50.122;18.972;2023-09-19T05:51:05;97865.53;;;15.01;71.12
41040;BME280;48586;50.122;18.972;2023-09-19T05:54:13;97871.38;;;15.04;70.67
41040;BME280;48586;50.122;18.972;2023-09-19T05:57:22;97878.00;;;15.02;70.11
41040;BME280;48586;50.122;18.972;2023-09-19T06:00:28;97875.66;;;14.99;69.40
41040;BME280;48586;50.122;18.972;2023-09-19T06:03:33;97884.97;;;14.96;69.80
41040;BME280;48586;50.122;18.972;2023-09-19T06:06:41;97905.19;;;14.85;69.76
41040;BME280;48586;50.122;18.972;2023-09-19T06:09:46;97894.66;;;14.69;70.68
41040;BME280;48586;50.122;18.972;2023-09-19T06:12:55;97897.34;;;14.54;71.69
41040;BME280;48586;50.122;18.972;2023-09-19T06:16:01;97900.59;;;14.50;72.07
41040;BME280;48586;50.122;18.972;2023-09-19T06:19:08;97891.41;;;14.44;71.46
41040;BME280;48586;50.122;18.972;2023-09-19T06:22:16;97895.41;;;14.48;71.44
41040;BME280;48586;50.122;18.972;2023-09-19T06:25:24;97900.81;;;14.48;70.99
41040;BME280;48586;50.122;18.972;2023-09-19T06:28:32;97895.03;;;14.51;71.23
41040;BME280;48586;50.122;18.972;2023-09-19T06:31:39;97908.63;;;14.58;70.80
41040;BME280;48586;50.122;18.972;2023-09-19T06:34:51;97907.59;;;14.59;70.43
41040;BME280;48586;50.122;18.972;2023-09-19T06:38:03;97919.00;;;14.61;70.36
41040;BME280;48586;50.122;18.972;2023-09-19T06:41:10;97919.00;;;14.61;70.18
41040;BME280;48586;50.122;18.972;2023-09-19T06:44:22;97928.94;;;14.60;70.06
41040;BME280;48586;50.122;18.972;2023-09-19T06:47:27;97924.41;;;14.61;70.14
41040;BME280;48586;50.122;18.972;2023-09-19T06:50:33;97928.56;;;14.63;69.99
41040;BME280;48586;50.122;18.972;2023-09-19T06:53:40;97944.72;;;14.63;69.70
41040;BME280;48586;50.122;18.972;2023-09-19T06:56:46;97943.91;;;14.63;69.15
41040;BME280;48586;50.122;18.972;2023-09-19T06:59:54;97963.41;;;14.65;69.64
41040;BME280;48586;50.122;18.972;2023-09-19T07:03:02;97964.41;;;14.64;69.54
41040;BME280;48586;50.122;18.972;2023-09-19T07:06:09;97980.50;;;14.72;69.32
41040;BME280;48586;50.122;18.972;2023-09-19T07:09:15;97983.44;;;14.77;69.07
41040;BME280;48586;50.122;18.972;2023-09-19T07:12:20;97999.25;;;14.80;68.32
41040;BME280;48586;50.122;18.972;2023-09-19T07:15:33;97999.91;;;14.82;68.75
41040;BME280;48586;50.122;18.972;2023-09-19T07:18:40;98011.31;;;14.84;68.02
41040;BME280;48586;50.122;18.972;2023-09-19T07:21:47;98017.09;;;14.81;67.69
41040;BME280;48586;50.122;18.972;2023-09-19T07:24:53;98017.94;;;14.82;67.75
41040;BME280;48586;50.122;18.972;2023-09-19T07:27:59;98018.13;;;14.80;68.09
41040;BME280;48586;50.122;18.972;2023-09-19T07:31:07;98022.75;;;14.86;68.01
41040;BME280;48586;50.122;18.972;2023-09-19T07:34:17;98033.34;;;14.88;67.98
41040;BME280;48586;50.122;18.972;2023-09-19T07:37:24;98038.38;;;14.91;67.32
41040;BME280;48586;50.122;18.972;2023-09-19T07:40:29;98035.94;;;14.96;67.35
41040;BME280;48586;50.122;18.972;2023-09-19T07:43:34;98054.16;;;14.94;67.36
41040;BME280;48586;50.122;18.972;2023-09-19T07:46:45;98054.59;;;14.98;67.29
41040;BME280;48586;50.122;18.972;2023-09-19T07:49:53;98066.41;;;14.97;67.27
41040;BME280;48586;50.122;18.972;2023-09-19T07:52:59;98071.81;;;14.97;67.68
41040;BME280;48586;50.122;18.972;2023-09-19T07:56:08;98075.72;;;14.94;67.65
41040;BME280;48586;50.122;18.972;2023-09-19T07:59:16;98085.88;;;14.92;68.11
41040;BME280;48586;50.122;18.972;2023-09-19T08:02:24;98084.09;;;14.84;67.88
41040;BME280;48586;50.122;18.972;2023-09-19T08:05:31;98093.94;;;14.77;68.99
41040;BME280;48586;50.122;18.972;2023-09-19T08:08:39;98101.13;;;14.70;68.97
41040;BME280;48586;50.122;18.972;2023-09-19T08:11:46;98100.63;;;14.67;69.85
41040;BME280;48586;50.122;18.972;2023-09-19T08:14:53;98106.00;;;14.67;69.94
41040;BME280;48586;50.122;18.972;2023-09-19T08:18:03;98101.38;;;14.60;70.12
41040;BME280;48586;50.122;18.972;2023-09-19T08:21:12;98108.81;;;14.58;70.08
41040;BME280;48586;50.122;18.972;2023-09-19T08:24:18;98107.19;;;14.49;69.73
41040;BME280;48586;50.122;18.972;2023-09-19T08:27:27;98121.97;;;14.53;70.21
41040;BME280;48586;50.122;18.972;2023-09-19T08:30:39;98118.63;;;14.51;70.11
41040;BME280;48586;50.122;18.972;2023-09-19T08:33:48;98129.94;;;14.47;70.45
41040;BME280;48586;50.122;18.972;2023-09-19T08:36:58;98128.56;;;14.51;70.38
41040;BME280;48586;50.122;18.972;2023-09-19T08:40:04;98124.91;;;14.44;70.41
41040;BME280;48586;50.122;18.972;2023-09-19T08:43:14;98113.66;;;14.25;70.22
41040;BME280;48586;50.122;18.972;2023-09-19T08:46:20;98145.09;;;14.48;70.71
41040;BME280;48586;50.122;18.972;2023-09-19T08:49:45;98125.09;;;14.42;70.56
41040;BME280;48586;50.122;18.972;2023-09-19T08:53:11;98129.28;;;14.45;70.61
41040;BME280;48586;50.122;18.972;2023-09-19T08:56:26;98136.63;;;14.51;71.23
41040;BME280;48586;50.122;18.972;2023-09-19T08:59:37;98147.41;;;14.51;71.79
41040;BME280;48586;50.122;18.972;2023-09-19T09:02:47;98150.56;;;14.40;71.67
41040;BME280;48586;50.122;18.972;2023-09-19T09:05:56;98135.28;;;14.32;72.86
41040;BME280;48586;50.122;18.972;2023-09-19T09:09:04;98144.50;;;14.38;72.06
41040;BME280;48586;50.122;18.972;2023-09-19T09:12:12;98147.03;;;14.39;71.57
41040;BME280;48586;50.122;18.972;2023-09-19T09:15:21;98145.81;;;14.42;71.07
41040;BME280;48586;50.122;18.972;2023-09-19T09:18:28;98144.59;;;14.44;70.96
41040;BME280;48586;50.122;18.972;2023-09-19T09:21:37;98146.19;;;14.53;71.04
41040;BME280;48586;50.122;18.972;2023-09-19T09:24:52;98145.59;;;14.66;71.07
41040;BME280;48586;50.122;18.972;2023-09-19T09:28:01;98154.06;;;14.78;70.80
41040;BME280;48586;50.122;18.972;2023-09-19T09:31:22;98152.38;;;14.77;70.40
41040;BME280;48586;50.122;18.972;2023-09-19T09:34:32;98154.56;;;14.81;70.63
41040;BME280;48586;50.122;18.972;2023-09-19T09:37:43;98163.28;;;14.83;70.36
41040;BME280;48586;50.122;18.972;2023-09-19T09:40:53;98155.91;;;14.77;70.15
41040;BME280;48586;50.122;18.972;2023-09-19T09:44:13;98159.28;;;14.79;70.26
41040;BME280;48586;50.122;18.972;2023-09-19T09:47:41;98174.38;;;14.88;70.25
41040;BME280;48586;50.122;18.972;2023-09-19T09:50:58;98174.16;;;14.90;69.80
41040;BME280;48586;50.122;18.972;2023-09-19T09:54:17;98171.94;;;14.93;69.70
41040;BME280;48586;50.122;18.972;2023-09-19T09:57:25;98173.91;;;15.00;70.07
41040;BME280;48586;50.122;18.972;2023-09-19T10:00:32;98173.59;;;15.09;69.93
41040;BME280;48586;50.122;18.972;2023-09-19T10:03:45;98171.09;;;15.08;69.70
41040;BME280;48586;50.122;18.972;2023-09-19T10:06:56;98170.75;;;15.11;69.42
41040;BME280;48586;50.122;18.972;2023-09-19T10:10:10;98174.47;;;15.10;69.30
41040;BME280;48586;50.122;18.972;2023-09-19T10:13:26;98168.19;;;15.09;69.49
41040;BME280;48586;50.122;18.972;2023-09-19T10:16:40;98173.06;;;15.14;69.73
41040;BME280;48586;50.122;18.972;2023-09-19T10:19:54;98186.16;;;15.17;70.04
41040;BME280;48586;50.122;18.972;2023-09-19T10:23:09;98184.47;;;15.16;69.41
41040;BME280;48586;50.122;18.972;2023-09-19T10:26:21;98184.09;;;15.19;69.29
41040;BME280;48586;50.122;18.972;2023-09-19T10:29:34;98190.81;;;15.23;69.86
41040;BME280;48586;50.122;18.972;2023-09-19T10:32:57;98199.81;;;15.30;69.83
41040;BME280;48586;50.122;18.972;2023-09-19T10:36:07;98199.06;;;15.36;69.46
41040;BME280;48586;50.122;18.972;2023-09-19T10:39:17;98203.63;;;15.36;69.49
41040;BME280;48586;50.122;18.972;2023-09-19T10:42:28;98205.31;;;15.37;69.56
41040;BME280;48586;50.122;18.972;2023-09-19T10:45:40;98201.59;;;15.38;69.90
41040;BME280;48586;50.122;18.972;2023-09-19T10:48:51;98216.88;;;15.45;69.53
41040;BME280;48586;50.122;18.972;2023-09-19T10:52:01;98221.06;;;15.48;69.70
41040;BME280;48586;50.122;18.972;2023-09-19T10:55:18;98213.34;;;15.45;69.89
41040;BME280;48586;50.122;18.972;2023-09-19T10:58:31;98225.72;;;15.54;69.79
41040;BME280;48586;50.122;18.972;2023-09-19T11:01:45;98223.38;;;15.51;69.50
41040;BME280;48586;50.122;18.972;2023-09-19T11:04:53;98223.63;;;15.41;69.91
41040;BME280;48586;50.122;18.972;2023-09-19T11:07:58;98227.47;;;15.32;70.10
41040;BME280;48586;50.122;18.972;2023-09-19T11:11:38;98229.78;;;15.20;71.83
41040;BME280;48586;50.122;18.972;2023-09-19T11:14:46;98240.28;;;15.01;72.78
41040;BME280;48586;50.122;18.972;2023-09-19T11:17:54;98227.97;;;14.83;72.87
41040;BME280;48586;50.122;18.972;2023-09-19T11:24:44;98237.06;;;14.68;74.53
41040;BME280;48586;50.122;18.972;2023-09-19T11:31:53;98243.13;;;14.84;74.45
41040;BME280;48586;50.122;18.972;2023-09-19T11:35:07;98244.91;;;14.92;72.80
41040;BME280;48586;50.122;18.972;2023-09-19T11:38:16;98247.03;;;14.97;72.52
41040;BME280;48586;50.122;18.972;2023-09-19T11:41:37;98246.31;;;15.03;71.74
41040;BME280;48586;50.122;18.972;2023-09-19T11:44:44;98243.88;;;15.08;70.87
41040;BME280;48586;50.122;18.972;2023-09-19T11:47:56;98240.66;;;15.12;70.21
41040;BME280;48586;50.122;18.972;2023-09-19T11:51:13;98246.31;;;15.17;69.90
41040;BME280;48586;50.122;18.972;2023-09-19T11:54:28;98238.22;;;15.17;70.07
41040;BME280;48586;50.122;18.972;2023-09-19T11:57:35;98244.75;;;15.23;69.70
41040;BME280;48586;50.122;18.972;2023-09-19T12:00:45;98252.19;;;15.36;69.77
41040;BME280;48586;50.122;18.972;2023-09-19T12:03:58;98241.41;;;15.36;69.15
41040;BME280;48586;50.122;18.972;2023-09-19T12:07:07;98250.28;;;15.44;67.67
41040;BME280;48586;50.122;18.972;2023-09-19T12:10:17;98248.50;;;15.51;67.98
41040;BME280;48586;50.122;18.972;2023-09-19T12:13:24;98250.72;;;15.63;67.74
41040;BME280;48586;50.122;18.972;2023-09-19T12:16:31;98250.72;;;15.77;67.73
41040;BME280;48586;50.122;18.972;2023-09-19T12:19:50;98256.66;;;15.88;66.45
41040;BME280;48586;50.122;18.972;2023-09-19T12:22:56;98258.28;;;16.03;66.19
41040;BME280;48586;50.122;18.972;2023-09-19T12:26:02;98254.91;;;16.16;66.30
41040;BME280;48586;50.122;18.972;2023-09-19T12:29:15;98251.16;;;16.32;65.11
41040;BME280;48586;50.122;18.972;2023-09-19T12:32:34;98249.59;;;16.44;64.64
41040;BME280;48586;50.122;18.972;2023-09-19T12:35:44;98251.03;;;16.61;64.21
41040;BME280;48586;50.122;18.972;2023-09-19T12:38:49;98253.72;;;16.83;63.07
41040;BME280;48586;50.122;18.972;2023-09-19T12:41:55;98256.09;;;16.99;61.76
41040;BME280;48586;50.122;18.972;2023-09-19T12:45:00;98262.94;;;17.16;61.36
41040;BME280;48586;50.122;18.972;2023-09-19T12:48:19;98255.78;;;17.37;60.08
41040;BME280;48586;50.122;18.972;2023-09-19T12:51:37;98255.75;;;17.71;59.96
41040;BME280;48586;50.122;18.972;2023-09-19T12:54:43;98245.72;;;18.06;59.36
41040;BME280;48586;50.122;18.972;2023-09-19T12:58:08;98247.78;;;18.72;58.42
41040;BME280;48586;50.122;18.972;2023-09-19T13:01:17;98247.31;;;19.21;55.23
41040;BME280;48586;50.122;18.972;2023-09-19T13:04:24;98241.84;;;19.55;53.53
41040;BME280;48586;50.122;18.972;2023-09-19T13:07:45;98239.56;;;19.51;53.32
41040;BME280;48586;50.122;18.972;2023-09-19T13:11:08;98238.31;;;19.47;53.07
41040;BME280;48586;50.122;18.972;2023-09-19T13:14:18;98233.66;;;19.68;54.15
41040;BME280;48586;50.122;18.972;2023-09-19T13:17:24;98236.75;;;19.78;51.16
41040;BME280;48586;50.122;18.972;2023-09-19T13:20:31;98240.09;;;19.80;52.66
41040;BME280;48586;50.122;18.972;2023-09-19T13:23:43;98245.47;;;19.93;51.67
41040;BME280;48586;50.122;18.972;2023-09-19T13:26:49;98244.84;;;20.36;49.64
41040;BME280;48586;50.122;18.972;2023-09-19T13:29:53;98240.81;;;20.45;48.60
41040;BME280;48586;50.122;18.972;2023-09-19T13:33:06;98239.41;;;20.67;49.86
41040;BME280;48586;50.122;18.972;2023-09-19T13:36:12;98245.25;;;20.39;47.79
41040;BME280;48586;50.122;18.972;2023-09-19T13:39:20;98239.78;;;20.08;49.33
41040;BME280;48586;50.122;18.972;2023-09-19T13:42:25;98244.66;;;19.86;50.41
41040;BME280;48586;50.122;18.972;2023-09-19T13:45:31;98241.22;;;19.59;51.38
41040;BME280;48586;50.122;18.972;2023-09-19T13:48:40;98242.53;;;19.37;51.85
41040;BME280;48586;50.122;18.972;2023-09-19T13:51:45;98252.97;;;19.07;53.46
41040;BME280;48586;50.122;18.972;2023-09-19T13:54:53;98256.91;;;18.71;53.81
41040;BME280;48586;50.122;18.972;2023-09-19T13:57:58;98271.25;;;18.45;56.54
41040;BME280;48586;50.122;18.972;2023-09-19T14:01:03;98293.50;;;17.79;62.79
41040;BME280;48586;50.122;18.972;2023-09-19T14:04:14;98293.63;;;16.59;68.88
41040;BME280;48586;50.122;18.972;2023-09-19T14:07:19;98296.16;;;15.74;69.49
41040;BME280;48586;50.122;18.972;2023-09-19T14:10:27;98289.22;;;15.27;71.53
41040;BME280;48586;50.122;18.972;2023-09-19T14:13:32;98289.16;;;14.98;72.55
41040;BME280;48586;50.122;18.972;2023-09-19T14:16:39;98287.63;;;14.80;74.21
41040;BME280;48586;50.122;18.972;2023-09-19T14:19:44;98286.03;;;14.71;74.50
41040;BME280;48586;50.122;18.972;2023-09-19T14:22:50;98287.22;;;14.69;75.24
41040;BME280;48586;50.122;18.972;2023-09-19T14:26:00;98287.28;;;14.60;74.98
41040;BME280;48586;50.122;18.972;2023-09-19T14:29:07;98286.66;;;14.50;75.52
41040;BME280;48586;50.122;18.972;2023-09-19T14:32:12;98276.41;;;14.46;75.12
41040;BME280;48586;50.122;18.972;2023-09-19T14:35:18;98272.13;;;14.36;74.47
41040;BME280;48586;50.122;18.972;2023-09-19T14:38:24;98269.47;;;14.28;75.85
41040;BME280;48586;50.122;18.972;2023-09-19T14:41:33;98268.22;;;14.16;75.42
41040;BME280;48586;50.122;18.972;2023-09-19T14:44:38;98285.03;;;14.18;75.27
41040;BME280;48586;50.122;18.972;2023-09-19T14:47:43;98286.22;;;14.16;75.43
41040;BME280;48586;50.122;18.972;2023-09-19T14:50:50;98289.09;;;14.14;75.28
41040;BME280;48586;50.122;18.972;2023-09-19T14:53:57;98286.78;;;14.03;75.18
41040;BME280;48586;50.122;18.972;2023-09-19T14:57:09;98284.94;;;14.03;75.47
41040;BME280;48586;50.122;18.972;2023-09-19T15:00:16;98288.16;;;13.99;75.64
41040;BME280;48586;50.122;18.972;2023-09-19T15:03:24;98289.88;;;13.92;74.91
41040;BME280;48586;50.122;18.972;2023-09-19T15:06:32;98294.59;;;13.90;75.05
41040;BME280;48586;50.122;18.972;2023-09-19T15:09:36;98299.53;;;13.78;74.55
41040;BME280;48586;50.122;18.972;2023-09-19T15:12:44;98297.84;;;13.77;74.88
41040;BME280;48586;50.122;18.972;2023-09-19T15:15:49;98290.97;;;13.74;75.43
41040;BME280;48586;50.122;18.972;2023-09-19T15:18:56;98300.72;;;13.75;75.41
41040;BME280;48586;50.122;18.972;2023-09-19T15:22:04;98290.63;;;13.77;75.87
41040;BME280;48586;50.122;18.972;2023-09-19T15:25:11;98286.56;;;13.82;74.94
41040;BME280;48586;50.122;18.972;2023-09-19T15:28:19;98293.94;;;13.88;74.99
41040;BME280;48586;50.122;18.972;2023-09-19T15:31:26;98290.22;;;13.89;74.71
41040;BME280;48586;50.122;18.972;2023-09-19T15:34:32;98286.34;;;13.91;74.79
41040;BME280;48586;50.122;18.972;2023-09-19T15:37:37;98283.81;;;13.90;74.58
41040;BME280;48586;50.122;18.972;2023-09-19T15:40:47;98278.41;;;13.98;75.23
41040;BME280;48586;50.122;18.972;2023-09-19T15:43:57;98283.25;;;14.02;74.89
41040;BME280;48586;50.122;18.972;2023-09-19T15:47:05;98275.34;;;14.01;73.86
41040;BME280;48586;50.122;18.972;2023-09-19T15:50:12;98286.44;;;14.06;74.85
41040;BME280;48586;50.122;18.972;2023-09-19T15:53:17;98275.31;;;14.09;73.89
41040;BME280;48586;50.122;18.972;2023-09-19T15:56:23;98271.97;;;14.07;73.98
41040;BME280;48586;50.122;18.972;2023-09-19T15:59:32;98267.38;;;14.16;74.78
41040;BME280;48586;50.122;18.972;2023-09-19T16:02:38;98273.84;;;14.29;74.59
41040;BME280;48586;50.122;18.972;2023-09-19T16:05:43;98276.25;;;14.47;74.37
41040;BME280;48586;50.122;18.972;2023-09-19T16:08:52;98264.66;;;14.70;74.67
41040;BME280;48586;50.122;18.972;2023-09-19T16:12:00;98265.25;;;14.94;74.02
41040;BME280;48586;50.122;18.972;2023-09-19T16:15:09;98272.75;;;15.22;73.50
41040;BME280;48586;50.122;18.972;2023-09-19T16:18:17;98281.91;;;15.50;72.77
41040;BME280;48586;50.122;18.972;2023-09-19T16:21:25;98280.22;;;15.79;71.63
41040;BME280;48586;50.122;18.972;2023-09-19T16:24:31;98287.16;;;16.03;69.51
41040;BME280;48586;50.122;18.972;2023-09-19T16:27:40;98286.13;;;16.04;68.89
41040;BME280;48586;50.122;18.972;2023-09-19T16:30:48;98296.03;;;15.97;67.46
41040;BME280;48586;50.122;18.972;2023-09-19T16:33:54;98298.19;;;15.87;67.15
41040;BME280;48586;50.122;18.972;2023-09-19T16:37:01;98299.41;;;15.84;67.28